createdAt,value
2018-09-09T00:01:46.541Z,15.20
2018-09-09T00:04:15.545Z,15.03
2018-09-09T00:06:44.553Z,14.90
2018-09-09T00:09:17.804Z,13.93
2018-09-09T00:11:47.808Z,16.27
2018-09-09T00:14:16.705Z,13.30
2018-09-09T00:16:45.703Z,13.40
2018-09-09T00:19:14.564Z,14.90
2018-09-09T00:21:43.456Z,18.10
2018-09-09T00:24:12.349Z,14.77
2018-09-09T00:26:41.351Z,15.83
2018-09-09T00:29:10.430Z,15.73
2018-09-09T00:31:39.329Z,15.63
2018-09-09T00:34:08.165Z,13.00
2018-09-09T00:36:37.072Z,14.07
2018-09-09T00:39:07.798Z,13.40
2018-09-09T00:41:36.746Z,14.53
2018-09-09T00:44:05.660Z,14.17
2018-09-09T00:46:37.659Z,14.27
2018-09-09T00:49:11.747Z,15.47
2018-09-09T00:51:45.655Z,13.73
2018-09-09T00:54:14.569Z,15.00
2018-09-09T00:56:43.596Z,15.70
2018-09-09T00:59:12.886Z,16.07
2018-09-09T01:01:41.791Z,14.03
2018-09-09T01:04:10.802Z,14.63
2018-09-09T01:06:39.687Z,14.03
2018-09-09T01:09:10.038Z,14.17
2018-09-09T01:11:38.905Z,15.20
2018-09-09T01:14:07.903Z,14.60
2018-09-09T01:16:36.887Z,17.00
2018-09-09T01:19:05.891Z,17.00
2018-09-09T01:21:34.703Z,15.77
2018-09-09T01:24:03.592Z,16.53
2018-09-09T01:26:32.461Z,15.50
2018-09-09T01:29:01.501Z,19.60
2018-09-09T01:31:30.373Z,18.33
2018-09-09T01:34:02.895Z,16.30
2018-09-09T01:36:31.741Z,17.73
2018-09-09T01:39:00.610Z,17.73
2018-09-09T01:41:29.931Z,16.53
2018-09-09T01:43:58.847Z,22.10
2018-09-09T01:46:27.767Z,16.77
2018-09-09T01:48:56.938Z,18.37
2018-09-09T01:51:25.994Z,16.60
2018-09-09T01:53:54.823Z,17.97
2018-09-09T01:56:23.658Z,16.63
2018-09-09T01:58:52.560Z,17.70
2018-09-09T02:01:21.497Z,15.97
2018-09-09T02:03:50.384Z,16.60
2018-09-09T02:06:19.257Z,17.77
2018-09-09T02:08:52.388Z,20.03
2018-09-09T02:11:21.396Z,15.60
2018-09-09T02:13:50.498Z,17.67
2018-09-09T02:16:19.380Z,17.63
2018-09-09T02:18:48.381Z,16.53
2018-09-09T02:21:17.307Z,22.77
2018-09-09T02:23:46.162Z,17.63
2018-09-09T02:26:14.969Z,16.73
2018-09-09T02:28:43.828Z,18.73
2018-09-09T02:31:12.768Z,18.47
2018-09-09T02:33:42.829Z,15.50
2018-09-09T02:36:11.684Z,14.13
2018-09-09T02:38:40.906Z,17.63
2018-09-09T02:41:09.888Z,16.03
2018-09-09T02:43:38.866Z,16.63
2018-09-09T02:46:08.037Z,16.33
2018-09-09T02:48:36.936Z,18.10
2018-09-09T02:51:05.790Z,16.87
2018-09-09T02:53:34.703Z,16.03
2018-09-09T02:56:08.379Z,17.83
2018-09-09T02:58:37.532Z,18.07
2018-09-09T03:01:06.722Z,16.83
2018-09-09T03:03:35.648Z,17.17
2018-09-09T03:06:05.003Z,15.87
2018-09-09T03:08:33.841Z,15.73
2018-09-09T03:11:08.108Z,16.33
2018-09-09T03:13:37.370Z,13.67
2018-09-09T03:16:06.381Z,14.87
2018-09-09T03:18:35.318Z,16.47
2018-09-09T03:21:04.161Z,16.10
2018-09-09T03:23:36.190Z,14.23
2018-09-09T03:26:05.204Z,14.73
2018-09-09T03:28:34.344Z,18.50
2018-09-09T03:31:03.325Z,18.40
2018-09-09T03:33:32.277Z,17.03
2018-09-09T03:36:01.175Z,16.53
2018-09-09T03:38:30.066Z,14.07
2018-09-09T03:40:58.987Z,16.10
2018-09-09T03:43:27.910Z,15.93
2018-09-09T03:45:56.964Z,19.37
2018-09-09T03:48:26.024Z,20.60
2018-09-09T03:50:54.895Z,19.47
2018-09-09T03:53:24.944Z,14.37
2018-09-09T03:55:54.021Z,16.50
2018-09-09T03:58:22.819Z,16.40
2018-09-09T04:00:52.395Z,14.10
2018-09-09T04:03:21.281Z,15.20
2018-09-09T04:05:50.090Z,15.47
2018-09-09T04:08:19.508Z,17.90
2018-09-09T04:10:48.517Z,16.97
2018-09-09T04:13:17.361Z,18.10
2018-09-09T04:15:46.572Z,18.73
2018-09-09T04:18:16.755Z,14.40
2018-09-09T04:20:45.739Z,21.03
2018-09-09T04:23:15.125Z,16.20
2018-09-09T04:25:44.033Z,15.40
2018-09-09T04:28:12.931Z,15.37
2018-09-09T04:30:42.139Z,16.87
2018-09-09T04:33:11.077Z,16.30
2018-09-09T04:35:40.067Z,15.83
2018-09-09T04:38:09.100Z,17.10
2018-09-09T04:40:38.012Z,16.83
2018-09-09T04:43:06.850Z,15.97
2018-09-09T04:45:36.097Z,15.60
2018-09-09T04:48:04.995Z,14.60
2018-09-09T04:50:34.009Z,16.83
2018-09-09T04:53:02.908Z,14.53
2018-09-09T04:55:31.809Z,14.73
2018-09-09T04:58:00.685Z,14.20
2018-09-09T05:00:29.704Z,14.60
2018-09-09T05:02:58.580Z,16.40
2018-09-09T05:05:27.559Z,15.37
2018-09-09T05:07:56.588Z,15.10
2018-09-09T05:10:25.430Z,15.50
2018-09-09T05:12:54.401Z,14.33
2018-09-09T05:15:23.474Z,16.13
2018-09-09T05:17:52.421Z,17.57
2018-09-09T05:20:21.268Z,12.73
2018-09-09T05:22:50.117Z,15.13
2018-09-09T05:25:19.048Z,15.13
2018-09-09T05:27:48.000Z,15.50
2018-09-09T05:30:17.368Z,14.80
2018-09-09T05:32:46.262Z,15.77
2018-09-09T05:35:15.199Z,11.93
2018-09-09T05:37:44.181Z,11.30
2018-09-09T05:40:13.188Z,14.20
2018-09-09T05:42:41.995Z,11.80
2018-09-09T05:45:11.665Z,14.83
2018-09-09T05:47:40.596Z,12.77
2018-09-09T05:50:09.640Z,15.03
2018-09-09T05:52:38.549Z,15.07
2018-09-09T05:55:07.537Z,12.13
2018-09-09T05:57:36.345Z,12.63
2018-09-09T06:00:05.447Z,13.20
2018-09-09T06:02:34.490Z,13.80
2018-09-09T06:05:06.657Z,12.03
2018-09-09T06:07:35.521Z,14.40
2018-09-09T06:10:04.473Z,13.10
2018-09-09T06:12:33.401Z,11.80
2018-09-09T06:15:02.381Z,17.57
2018-09-09T06:17:31.348Z,15.00
2018-09-09T06:20:00.588Z,12.87
2018-09-09T06:22:29.472Z,14.57
2018-09-09T06:24:59.352Z,16.00
2018-09-09T06:27:28.258Z,19.40
2018-09-09T06:29:57.292Z,13.10
2018-09-09T06:32:26.290Z,13.40
2018-09-09T06:34:55.306Z,13.97
2018-09-09T06:37:25.296Z,13.70
2018-09-09T06:39:54.223Z,11.40
2018-09-09T06:42:23.466Z,15.43
2018-09-09T06:44:52.357Z,11.93
2018-09-09T06:47:21.160Z,12.27
2018-09-09T06:49:50.511Z,12.68
2018-09-09T06:52:19.358Z,12.25
2018-09-09T06:54:48.205Z,13.40
2018-09-09T06:57:17.090Z,12.33
2018-09-09T06:59:46.022Z,15.38
2018-09-09T07:02:18.482Z,12.85
2018-09-09T07:04:47.408Z,11.05
2018-09-09T07:07:16.363Z,13.53
2018-09-09T07:09:45.344Z,14.60
2018-09-09T07:12:14.356Z,11.10
2018-09-09T07:14:43.175Z,14.75
2018-09-09T07:17:12.502Z,11.55
2018-09-09T07:19:42.332Z,14.03
2018-09-09T07:22:11.287Z,17.02
2018-09-09T07:24:40.926Z,13.40
2018-09-09T07:27:09.858Z,15.25
2018-09-09T07:29:38.837Z,14.83
2018-09-09T07:32:08.248Z,15.55
2018-09-09T07:34:37.167Z,12.95
2018-09-09T07:37:06.043Z,16.52
2018-09-09T07:39:35.063Z,15.10
2018-09-09T07:42:04.466Z,14.93
2018-09-09T07:44:33.423Z,16.30
2018-09-09T07:47:02.729Z,15.28
2018-09-09T07:49:31.717Z,15.68
2018-09-09T07:52:00.612Z,14.65
2018-09-09T07:54:29.888Z,15.08
2018-09-09T07:56:59.776Z,14.70
2018-09-09T07:59:28.711Z,13.98
2018-09-09T08:01:58.103Z,12.10
2018-09-09T08:04:26.942Z,17.15
2018-09-09T08:06:55.833Z,18.82
2018-09-09T08:09:24.983Z,21.33
2018-09-09T08:11:53.962Z,15.98
2018-09-09T08:14:22.890Z,12.50
2018-09-09T08:16:51.896Z,12.75
2018-09-09T08:19:21.161Z,13.10
2018-09-09T08:21:49.979Z,16.42
2018-09-09T08:24:19.824Z,18.37
2018-09-09T08:26:48.677Z,22.50
2018-09-09T08:29:17.530Z,16.42
2018-09-09T08:31:46.825Z,12.30
2018-09-09T08:34:15.612Z,14.33
2018-09-09T08:36:45.676Z,12.70
2018-09-09T08:39:14.730Z,15.08
2018-09-09T08:41:43.663Z,13.60
2018-09-09T08:44:12.657Z,11.90
2018-09-09T08:46:41.817Z,17.30
2018-09-09T08:49:10.626Z,16.50
2018-09-09T08:51:39.447Z,13.15
2018-09-09T08:54:08.490Z,16.32
2018-09-09T08:56:37.282Z,13.25
2018-09-09T08:59:06.342Z,14.55
2018-09-09T09:01:35.720Z,13.22
2018-09-09T09:04:04.622Z,11.50
2018-09-09T09:06:33.545Z,10.63
2018-09-09T09:09:02.477Z,16.17
2018-09-09T09:11:31.408Z,15.23
2018-09-09T09:14:00.317Z,12.75
2018-09-09T09:16:29.293Z,11.95
2018-09-09T09:34:58.876Z,16.52
2018-09-09T09:37:28.126Z,12.58
2018-09-09T09:39:57.093Z,10.90
2018-09-09T09:42:26.093Z,12.07
2018-09-09T09:44:55.488Z,12.75
2018-09-09T09:47:24.537Z,15.23
2018-09-09T09:49:56.686Z,9.73
2018-09-09T09:52:25.615Z,8.98
2018-09-09T09:54:54.516Z,13.98
2018-09-09T09:57:23.492Z,14.05
2018-09-09T09:59:52.483Z,12.33
2018-09-09T10:02:21.352Z,12.35
2018-09-09T10:04:53.486Z,12.03
2018-09-09T10:07:22.332Z,12.95
2018-09-09T10:09:51.194Z,10.58
2018-09-09T10:12:20.136Z,13.08
2018-09-09T10:14:49.080Z,14.78
2018-09-09T10:17:18.941Z,12.13
2018-09-09T10:19:47.870Z,11.50
2018-09-09T10:22:16.955Z,13.35
2018-09-09T10:24:45.821Z,12.53
2018-09-09T10:27:15.320Z,11.85
2018-09-09T10:29:44.318Z,13.43
2018-09-09T10:32:13.225Z,14.85
2018-09-09T10:35:07.319Z,15.58
2018-09-09T10:37:56.911Z,13.68
2018-09-09T10:40:26.252Z,12.80
2018-09-09T10:42:55.317Z,11.57
2018-09-09T10:45:24.187Z,9.95
2018-09-09T10:47:53.352Z,12.18
2018-09-09T10:50:22.198Z,9.73
2018-09-09T10:52:51.231Z,13.00
2018-09-09T10:55:20.258Z,10.43
2018-09-09T10:57:49.092Z,11.35
2018-09-09T11:00:18.081Z,10.30
2018-09-09T11:02:48.506Z,12.95
2018-09-09T11:05:17.429Z,11.73
2018-09-09T11:07:46.309Z,13.48
2018-09-09T11:10:15.307Z,10.23
2018-09-09T11:12:44.152Z,10.55
2018-09-09T11:15:13.104Z,9.40
2018-09-09T11:17:45.109Z,12.85
2018-09-09T11:20:14.012Z,16.80
2018-09-09T11:22:42.928Z,10.20
2018-09-09T11:25:12.861Z,15.45
2018-09-09T11:27:41.736Z,9.03
2018-09-09T11:30:10.809Z,14.55
2018-09-09T11:32:42.636Z,12.53
2018-09-09T11:35:11.522Z,11.00
2018-09-09T11:37:40.325Z,11.33
2018-09-09T11:40:09.413Z,10.40
2018-09-09T11:42:38.429Z,12.58
2018-09-09T11:45:07.353Z,13.08
2018-09-09T11:47:36.374Z,8.63
2018-09-09T11:50:05.448Z,10.58
2018-09-09T11:52:34.489Z,10.30
2018-09-09T11:55:03.427Z,14.45
2018-09-09T11:57:32.468Z,11.05
2018-09-09T12:00:01.399Z,11.35
2018-09-09T12:02:31.366Z,14.15
2018-09-09T12:05:00.342Z,11.08
2018-09-09T12:07:29.332Z,10.28
2018-09-09T12:10:01.831Z,14.15
2018-09-09T12:12:30.589Z,13.83
2018-09-09T12:14:59.895Z,12.93
2018-09-09T12:17:29.020Z,10.23
2018-09-09T12:19:58.075Z,10.25
2018-09-09T12:22:27.098Z,11.70
2018-09-09T12:24:56.035Z,9.28
2018-09-09T12:27:24.961Z,18.73
2018-09-09T12:29:53.806Z,12.20
2018-09-09T12:32:22.912Z,8.70
2018-09-09T12:34:51.632Z,11.00
2018-09-09T12:37:20.714Z,11.48
2018-09-09T12:39:50.128Z,10.88
2018-09-09T12:42:19.136Z,9.10
2018-09-09T12:44:58.118Z,12.18
2018-09-09T12:47:32.115Z,11.35
2018-09-09T12:50:01.712Z,9.33
2018-09-09T12:52:30.672Z,10.78
2018-09-09T12:54:59.745Z,13.98
2018-09-09T12:57:29.702Z,7.97
2018-09-09T12:59:58.639Z,10.50
2018-09-09T13:02:27.816Z,11.55
2018-09-09T13:04:58.382Z,8.43
2018-09-09T13:07:27.503Z,8.53
2018-09-09T13:09:56.270Z,9.68
2018-09-09T13:12:28.143Z,15.00
2018-09-09T13:14:57.077Z,7.45
2018-09-09T13:17:26.014Z,9.83
2018-09-09T13:20:06.433Z,14.68
2018-09-09T13:22:35.349Z,9.98
2018-09-09T13:25:04.298Z,8.25
2018-09-09T13:27:33.725Z,10.72
2018-09-09T13:30:02.614Z,9.70
2018-09-09T13:32:31.532Z,12.45
2018-09-09T13:35:00.914Z,9.38
2018-09-09T13:37:29.946Z,11.25
2018-09-09T13:39:59.892Z,11.57
2018-09-09T13:42:29.278Z,8.80
2018-09-09T13:44:58.724Z,7.40
2018-09-09T13:47:27.636Z,9.70
2018-09-09T13:49:56.739Z,8.38
2018-09-09T13:52:25.712Z,7.87
2018-09-09T13:54:54.728Z,10.23
2018-09-09T13:57:23.965Z,14.70
2018-09-09T13:59:52.828Z,9.93
2018-09-09T14:02:21.805Z,8.53
2018-09-09T14:04:51.079Z,6.97
2018-09-09T14:07:20.053Z,9.18
2018-09-09T14:09:49.070Z,11.25
2018-09-09T14:12:18.366Z,8.43
2018-09-09T14:14:47.253Z,11.30
2018-09-09T14:17:16.176Z,10.88
2018-09-09T14:19:45.638Z,8.10
2018-09-09T14:22:18.274Z,9.63
2018-09-09T14:24:47.533Z,15.60
2018-09-09T14:27:16.392Z,10.75
2018-09-09T14:29:45.970Z,10.78
2018-09-09T14:32:14.857Z,9.70
2018-09-09T14:34:43.817Z,10.58
2018-09-09T14:37:13.122Z,11.05
2018-09-09T14:39:42.493Z,11.83
2018-09-09T14:42:11.602Z,10.80
2018-09-09T14:44:40.438Z,13.60
2018-09-09T14:47:09.579Z,9.15
2018-09-09T14:49:38.487Z,9.40
2018-09-09T14:52:07.529Z,12.53
2018-09-09T14:54:37.523Z,10.55
2018-09-09T14:57:09.480Z,10.85
2018-09-09T14:59:38.691Z,10.30
2018-09-09T15:02:07.696Z,9.95
2018-09-09T15:04:36.693Z,12.98
2018-09-09T15:07:05.914Z,11.80
2018-09-09T15:09:34.874Z,9.83
2018-09-09T15:12:04.634Z,10.35
2018-09-09T15:14:33.594Z,12.70
2018-09-09T15:17:02.428Z,8.93
2018-09-09T15:19:31.384Z,10.58
2018-09-09T15:22:00.340Z,11.03
2018-09-09T15:24:29.900Z,13.13
2018-09-09T15:26:59.827Z,11.80
2018-09-09T15:29:28.886Z,9.83
2018-09-09T15:31:57.758Z,18.10
2018-09-09T15:34:27.183Z,13.08
2018-09-09T15:36:56.952Z,15.48
2018-09-09T15:39:25.963Z,9.53
2018-09-09T15:41:55.315Z,9.13
2018-09-09T15:44:24.226Z,8.65
2018-09-09T15:46:56.986Z,10.32
2018-09-09T15:49:29.614Z,9.83
2018-09-09T15:51:58.897Z,8.38
2018-09-09T15:54:27.789Z,10.95
2018-09-09T15:56:56.617Z,11.50
2018-09-09T15:59:25.582Z,10.08
2018-09-09T16:01:55.475Z,10.85
2018-09-09T16:08:07.158Z,9.90
2018-09-09T16:10:37.248Z,13.75
2018-09-09T16:13:07.112Z,14.00
2018-09-09T16:15:36.022Z,9.43
2018-09-09T16:18:05.359Z,14.33
2018-09-09T16:20:34.207Z,9.33
2018-09-09T16:23:03.192Z,12.35
2018-09-09T16:25:32.429Z,11.75
2018-09-09T16:28:01.354Z,14.35
2018-09-09T16:30:30.328Z,16.97
2018-09-09T16:32:59.281Z,12.68
2018-09-09T16:35:28.160Z,15.43
2018-09-09T16:37:57.033Z,16.25
2018-09-09T16:40:26.092Z,19.25
2018-09-09T16:42:55.131Z,14.50
2018-09-09T16:45:24.109Z,18.90
2018-09-09T16:47:53.457Z,14.33
2018-09-09T16:50:23.395Z,14.58
2018-09-09T16:52:52.258Z,13.20
2018-09-09T16:55:37.268Z,16.23
2018-09-09T16:58:06.363Z,14.38
2018-09-09T17:00:35.314Z,16.70
2018-09-09T17:03:04.821Z,15.28
2018-09-09T17:05:44.567Z,11.88
2018-09-09T17:08:13.833Z,13.08
2018-09-09T17:10:42.829Z,14.58
2018-09-09T17:13:11.804Z,17.65
2018-09-09T17:15:40.675Z,14.70
2018-09-09T17:18:09.672Z,10.55
2018-09-09T17:20:38.848Z,12.70
2018-09-09T17:23:07.960Z,13.32
2018-09-09T17:25:36.926Z,13.88
2018-09-09T17:28:05.992Z,13.60
2018-09-09T17:30:34.963Z,14.25
2018-09-09T17:33:03.959Z,10.98
2018-09-09T17:35:32.821Z,15.00
2018-09-09T17:38:01.873Z,13.25
2018-09-09T17:40:30.838Z,11.73
2018-09-09T17:42:59.749Z,12.75
2018-09-09T17:45:29.493Z,14.87
2018-09-09T17:48:05.196Z,12.00
2018-09-09T17:50:34.550Z,12.90
2018-09-09T17:53:03.710Z,11.05
2018-09-09T17:55:34.269Z,11.53
2018-09-09T17:58:06.563Z,15.03
2018-09-09T18:00:35.572Z,9.45
2018-09-09T18:03:05.491Z,12.55
2018-09-09T18:05:38.033Z,12.82
2018-09-09T18:08:13.105Z,11.45
2018-09-09T18:10:42.871Z,13.48
2018-09-09T18:13:13.025Z,12.40
2018-09-09T18:15:42.082Z,12.00
2018-09-09T18:18:12.590Z,14.15
2018-09-09T18:20:42.198Z,9.93
2018-09-09T18:23:15.821Z,11.55
2018-09-09T18:25:46.941Z,10.05
2018-09-09T18:28:20.268Z,10.08
2018-09-09T18:30:49.158Z,11.38
2018-09-09T18:33:18.175Z,11.10
2018-09-09T18:35:47.580Z,10.30
2018-09-09T18:38:19.927Z,13.88
2018-09-09T18:40:49.827Z,10.53
2018-09-09T18:43:18.866Z,12.55
2018-09-09T18:45:48.113Z,10.35
2018-09-09T18:48:23.683Z,13.60
2018-09-09T18:51:00.566Z,13.35
2018-09-09T18:53:37.082Z,11.03
2018-09-09T18:56:06.196Z,11.93
2018-09-09T18:58:35.450Z,10.80
2018-09-09T19:01:04.591Z,9.78
2018-09-09T19:03:33.684Z,13.30
2018-09-09T19:10:07.907Z,13.08
2018-09-09T19:12:36.986Z,13.80
2018-09-09T19:15:06.277Z,15.67
2018-09-09T19:17:35.366Z,11.40
2018-09-09T19:20:04.469Z,15.95
2018-09-09T19:22:33.513Z,13.03
2018-09-09T19:25:02.738Z,10.80
2018-09-09T19:27:33.805Z,13.40
2018-09-09T19:30:02.935Z,11.10
2018-09-09T19:32:31.934Z,12.27
2018-09-09T19:35:01.084Z,12.27
2018-09-09T19:37:30.668Z,11.70
2018-09-09T19:39:59.663Z,9.70
2018-09-09T19:42:28.866Z,11.93
2018-09-09T19:45:04.761Z,10.78
2018-09-09T19:47:34.350Z,10.70
2018-09-09T19:50:04.494Z,8.20
2018-09-09T19:52:38.393Z,10.10
2018-09-09T19:55:07.706Z,7.50
2018-09-09T19:57:37.146Z,9.63
2018-09-09T20:00:12.348Z,12.10
2018-09-09T20:02:41.308Z,8.77
2018-09-09T20:05:10.193Z,10.13
2018-09-09T20:07:45.409Z,10.05
2018-09-09T20:10:14.524Z,8.60
2018-09-09T20:12:44.602Z,9.33
2018-09-09T20:15:13.817Z,8.20
2018-09-09T20:17:42.884Z,9.20
2018-09-09T20:20:15.313Z,10.90
2018-09-09T20:22:44.590Z,9.40
2018-09-09T20:25:13.640Z,10.03
2018-09-09T20:27:43.623Z,10.17
2018-09-09T20:30:17.858Z,8.00
2018-09-09T20:32:46.925Z,10.57
2018-09-09T20:35:16.525Z,7.90
2018-09-09T20:37:49.425Z,8.27
2018-09-09T20:40:18.619Z,8.77
2018-09-09T20:42:48.927Z,7.70
2018-09-09T20:45:25.818Z,8.83
2018-09-09T20:48:01.714Z,10.40
2018-09-09T20:50:31.142Z,12.40
2018-09-09T20:53:00.295Z,7.30
2018-09-09T20:55:29.622Z,11.07
2018-09-09T20:57:59.803Z,7.70
2018-09-09T21:05:45.177Z,8.23
2018-09-09T21:08:15.469Z,7.23
2018-09-09T21:10:56.530Z,8.60
2018-09-09T21:13:25.806Z,8.83
2018-09-09T21:15:54.894Z,8.17
2018-09-09T21:18:24.995Z,11.73
2018-09-09T21:20:54.521Z,8.80
2018-09-09T21:23:23.594Z,12.57
2018-09-09T21:25:53.675Z,9.90
2018-09-09T21:28:22.992Z,8.13
2018-09-09T21:30:51.987Z,7.57
2018-09-09T21:33:20.997Z,8.50
2018-09-09T21:35:50.092Z,6.47
2018-09-09T21:38:18.856Z,10.27
2018-09-09T21:40:47.769Z,8.27
2018-09-09T21:43:16.976Z,8.43
2018-09-09T21:45:46.113Z,7.37
2018-09-09T21:48:15.113Z,8.53
2018-09-09T21:50:44.582Z,8.10
2018-09-09T21:53:17.437Z,6.77
2018-09-09T21:55:46.849Z,9.53
2018-09-09T21:58:18.921Z,8.20
2018-09-09T22:03:42.217Z,7.00
2018-09-09T22:06:12.069Z,8.53
2018-09-09T22:08:41.025Z,7.73
2018-09-09T22:11:09.908Z,7.73
2018-09-09T22:13:39.389Z,8.23
2018-09-09T22:16:08.411Z,7.90
2018-09-09T22:18:37.388Z,8.47
2018-09-09T22:21:12.231Z,7.77
2018-09-09T22:23:42.401Z,11.00
2018-09-09T22:26:18.481Z,7.97
2018-09-09T22:28:48.457Z,8.33
2018-09-09T22:31:22.329Z,8.77
2018-09-09T22:33:55.359Z,7.23
2018-09-09T22:36:25.345Z,8.40
2018-09-09T22:38:55.050Z,8.43
2018-09-09T22:41:24.195Z,6.43
2018-09-09T22:44:00.332Z,8.07
2018-09-09T22:46:30.022Z,9.37
2018-09-09T22:48:58.973Z,8.67
2018-09-09T22:51:28.142Z,8.03
2018-09-09T22:53:56.960Z,7.53
2018-09-09T22:56:25.885Z,8.73
2018-09-09T22:59:04.090Z,7.20
2018-09-09T23:01:37.804Z,8.20
2018-09-09T23:04:07.346Z,8.90
2018-09-09T23:09:58.790Z,7.10
2018-09-09T23:12:27.765Z,6.87
2018-09-09T23:14:56.811Z,6.60
2018-09-09T23:17:25.972Z,9.73
2018-09-09T23:19:54.984Z,8.20
2018-09-09T23:22:23.832Z,8.83
2018-09-09T23:24:53.328Z,9.87
2018-09-09T23:27:22.236Z,9.60
2018-09-09T23:29:51.087Z,8.53
2018-09-09T23:32:20.401Z,7.63
2018-09-09T23:34:49.305Z,10.93
2018-09-09T23:37:18.198Z,11.37
2018-09-09T23:39:47.512Z,11.20
2018-09-09T23:42:16.412Z,10.27
2018-09-09T23:44:45.547Z,9.00
2018-09-09T23:47:14.647Z,9.77
2018-09-09T23:49:43.606Z,11.40
2018-09-09T23:52:12.596Z,12.60
2018-09-09T23:54:41.960Z,12.53
2018-09-09T23:57:11.001Z,11.10
2018-09-09T23:59:39.958Z,8.83
